Time;durP1;ratioP1;P1;durP2;ratioP2;P2;SDS_P1;SDS_P2;PMS_P1;PMS_P2;Temp;Humidity;BMP_temperature;BMP_pressure;BME280_temperature;BME280_humidity;BME280_pressure;Samples;Min_cycle;Max_cycle;Signal;HPM_P1;HPM_P2
2022/04/14 00:01:34;;;;;;;1.92;0.90;;;21.90;52.60;;;;;;5068103;28;20044;-72
2022/04/14 00:04:00;;;;;;;2.05;1.10;;;21.90;52.60;;;;;;5078961;28;20037;-72
2022/04/14 00:06:27;;;;;;;2.60;0.82;;;22.00;52.10;;;;;;5078579;28;20056;-73
2022/04/14 00:08:53;;;;;;;1.25;0.65;;;21.90;52.50;;;;;;5075734;28;20071;-72
2022/04/14 00:11:19;;;;;;;2.80;1.23;;;21.90;52.60;;;;;;5064625;28;20032;-72
2022/04/14 00:13:46;;;;;;;1.23;1.00;;;21.90;52.10;;;;;;5058609;28;20710;-72
2022/04/14 00:16:13;;;;;;;1.65;0.85;;;21.90;52.30;;;;;;5058345;28;20033;-72
2022/04/14 00:18:39;;;;;;;3.47;0.90;;;21.90;52.80;;;;;;5058220;28;20061;-72
2022/04/14 00:21:05;;;;;;;1.60;0.90;;;21.90;52.90;;;;;;5058438;28;20072;-72
2022/04/14 00:23:31;;;;;;;1.58;1.00;;;21.90;52.60;;;;;;5058473;28;20048;-72
2022/04/14 00:25:58;;;;;;;2.90;1.00;;;21.90;52.70;;;;;;5058033;28;20053;-72
2022/04/14 00:28:24;;;;;;;2.08;0.98;;;21.90;52.80;;;;;;5058097;28;20096;-72
2022/04/14 00:30:50;;;;;;;3.20;1.33;;;21.90;52.80;;;;;;5058420;28;20037;-72
2022/04/14 00:33:17;;;;;;;2.08;0.90;;;21.90;52.70;;;;;;5058043;28;20076;-72
2022/04/14 00:35:44;;;;;;;3.30;0.90;;;21.90;52.90;;;;;;5057454;28;20057;-72
2022/04/14 00:38:10;;;;;;;0.93;0.75;;;21.80;52.80;;;;;;5056514;28;20044;-72
2022/04/14 00:40:36;;;;;;;2.08;0.80;;;21.80;52.90;;;;;;5058093;28;20056;-72
2022/04/14 00:43:02;;;;;;;1.75;0.98;;;22.00;51.60;;;;;;5058112;28;20045;-72
2022/04/14 00:45:30;;;;;;;2.42;0.55;;;21.90;52.80;;;;;;5069882;28;20071;-72
2022/04/14 00:47:56;;;;;;;0.80;0.77;;;21.90;52.80;;;;;;5078006;28;20100;-72
2022/04/14 00:50:22;;;;;;;3.53;1.10;;;22.00;51.30;;;;;;5078004;28;20386;-72
2022/04/14 00:52:48;;;;;;;0.88;0.60;;;22.00;52.80;;;;;;5078115;28;20036;-72
2022/04/14 00:55:16;;;;;;;0.65;0.60;;;21.90;52.50;;;;;;5077911;28;20036;-72
2022/04/14 00:57:43;;;;;;;2.88;1.10;;;22.00;52.60;;;;;;5077635;28;20049;-72
2022/04/14 01:00:10;;;;;;;1.55;1.33;;;22.00;52.80;;;;;;5076270;28;20036;-72
2022/04/14 01:02:36;;;;;;;1.08;1.00;;;21.90;52.70;;;;;;5077192;28;20045;-72
2022/04/14 01:05:04;;;;;;;1.10;1.00;;;21.90;51.10;;;;;;5077629;28;20052;-72
2022/04/14 01:07:33;;;;;;;4.72;0.93;;;21.80;52.70;;;;;;5077446;28;20044;-72
2022/04/14 01:10:00;;;;;;;2.85;1.27;;;22.00;52.90;;;;;;5060232;28;20104;-72
2022/04/14 01:12:27;;;;;;;3.15;1.00;;;21.80;52.80;;;;;;5077338;28;20049;-72
2022/04/14 01:14:53;;;;;;;1.58;0.90;;;21.80;52.80;;;;;;5060444;28;20036;-72
2022/04/14 01:17:20;;;;;;;2.05;1.17;;;21.90;53.00;;;;;;5057103;28;20049;-72
2022/04/14 01:19:46;;;;;;;1.50;1.10;;;21.80;52.20;;;;;;5057433;28;20048;-72
2022/04/14 01:22:24;;;;;;;2.55;1.15;;;21.90;53.00;;;;;;5057493;28;20051;-72
2022/04/14 01:24:56;;;;;;;1.45;1.25;;;21.70;52.90;;;;;;5063319;28;20055;-72
2022/04/14 01:27:25;;;;;;;2.83;1.20;;;21.80;52.50;;;;;;5058897;28;20041;-72
2022/04/14 01:29:52;;;;;;;1.02;0.90;;;21.80;52.70;;;;;;5062368;28;20087;-72
2022/04/14 01:32:19;;;;;;;1.50;1.10;;;21.90;52.90;;;;;;5076561;28;20051;-72
2022/04/14 01:34:46;;;;;;;1.73;1.10;;;21.80;52.70;;;;;;5077259;28;20041;-72
2022/04/14 01:37:12;;;;;;;4.15;1.13;;;21.80;52.70;;;;;;5077244;28;20033;-72
2022/04/14 01:39:39;;;;;;;1.92;1.05;;;21.90;52.90;;;;;;5074680;28;20056;-72
2022/04/14 01:42:06;;;;;;;5.10;1.00;;;21.80;52.30;;;;;;5077206;28;20079;-72
2022/04/14 01:44:33;;;;;;;1.63;1.10;;;21.80;52.90;;;;;;5066921;28;20076;-72
2022/04/14 01:46:59;;;;;;;1.27;0.85;;;21.80;52.80;;;;;;5056823;28;20041;-72
2022/04/14 01:49:25;;;;;;;5.55;1.20;;;21.80;52.80;;;;;;5056343;28;20037;-72
2022/04/14 01:51:51;;;;;;;2.92;1.10;;;21.90;52.80;;;;;;5056938;28;20042;-72
2022/04/14 01:54:17;;;;;;;1.90;0.82;;;21.90;52.90;;;;;;5056318;28;20037;-72
2022/04/14 01:56:45;;;;;;;3.17;1.20;;;21.90;52.80;;;;;;5056791;28;20033;-72
2022/04/14 01:59:12;;;;;;;2.20;1.10;;;21.90;52.80;;;;;;5056280;28;20041;-72
2022/04/14 02:01:39;;;;;;;1.85;1.10;;;22.00;52.90;;;;;;5064882;28;20033;-72
2022/04/14 02:04:07;;;;;;;3.90;1.35;;;21.80;52.80;;;;;;5076290;28;20481;-72
2022/04/14 02:06:34;;;;;;;1.95;1.00;;;21.90;52.70;;;;;;5075819;28;20041;-72
2022/04/14 02:09:00;;;;;;;1.35;1.05;;;21.90;52.70;;;;;;5069409;28;20063;-72
2022/04/14 02:11:26;;;;;;;2.10;1.30;;;22.00;52.60;;;;;;5076742;28;20040;-72
2022/04/14 02:13:53;;;;;;;1.83;0.98;;;21.90;52.80;;;;;;5075725;28;20063;-72
2022/04/14 02:16:19;;;;;;;2.53;0.90;;;21.80;52.80;;;;;;5076058;28;20040;-72
2022/04/14 02:18:45;;;;;;;2.80;1.20;;;21.70;52.90;;;;;;5076493;28;20044;-72
2022/04/14 02:21:11;;;;;;;4.88;1.45;;;21.80;53.00;;;;;;5076413;28;20037;-72
2022/04/14 02:23:38;;;;;;;2.88;0.88;;;21.80;52.90;;;;;;5065770;28;20139;-72
2022/04/14 02:26:04;;;;;;;1.65;1.13;;;21.70;52.90;;;;;;5056526;28;20049;-72
2022/04/14 02:28:30;;;;;;;5.47;1.20;;;21.70;53.00;;;;;;5056335;28;20061;-72
2022/04/14 02:30:56;;;;;;;1.95;1.52;;;21.70;53.20;;;;;;5056814;28;20048;-72
2022/04/14 02:33:22;;;;;;;1.13;1.00;;;21.70;53.10;;;;;;5068951;28;20037;-72
2022/04/14 02:35:49;;;;;;;3.83;1.30;;;21.60;53.10;;;;;;5076069;28;20036;-72
2022/04/14 02:38:15;;;;;;;2.28;1.20;;;21.70;53.10;;;;;;5076140;28;20045;-72
2022/04/14 02:40:41;;;;;;;2.95;1.60;;;21.60;52.90;;;;;;5074617;28;20108;-72
2022/04/14 02:43:07;;;;;;;1.20;1.15;;;21.70;53.10;;;;;;5074512;28;20048;-72
2022/04/14 02:45:33;;;;;;;2.33;1.48;;;21.60;52.60;;;;;;5056026;28;20037;-72
2022/04/14 02:48:00;;;;;;;1.65;1.25;;;21.70;52.80;;;;;;5055174;28;20033;-72
2022/04/14 02:50:26;;;;;;;1.25;0.90;;;21.70;53.20;;;;;;5055231;28;20037;-72
2022/04/14 02:52:54;;;;;;;2.63;1.20;;;21.70;53.20;;;;;;5054289;28;20052;-72
2022/04/14 02:55:21;;;;;;;2.67;1.42;;;21.70;53.20;;;;;;5055707;28;20029;-72
2022/04/14 02:57:48;;;;;;;3.67;1.55;;;21.80;53.10;;;;;;5055243;28;20043;-72
2022/04/14 03:00:15;;;;;;;2.72;1.40;;;21.70;53.10;;;;;;5054422;28;20105;-72
2022/04/14 03:02:41;;;;;;;4.78;1.52;;;21.70;53.20;;;;;;5057502;28;20055;-72
2022/04/14 03:05:09;;;;;;;6.63;1.50;;;21.70;53.20;;;;;;5058381;28;20065;-72
2022/04/14 03:07:36;;;;;;;2.88;1.60;;;21.70;53.10;;;;;;5058416;28;20088;-72
2022/04/14 03:10:04;;;;;;;3.22;1.38;;;21.70;53.10;;;;;;5058234;28;20577;-72
2022/04/14 03:12:57;;;;;;;3.65;1.30;;;21.70;53.00;;;;;;5058724;28;20068;-72
2022/04/14 03:15:25;;;;;;;2.10;1.45;;;21.60;52.90;;;;;;5059919;28;20037;-72
2022/04/14 03:17:50;;;;;;;1.88;1.17;;;21.60;52.80;;;;;;5059711;28;20063;-72
2022/04/14 03:20:19;;;;;;;2.15;1.30;;;21.60;52.90;;;;;;5059583;28;20117;-72
2022/04/14 03:22:45;;;;;;;1.77;1.00;;;21.50;53.00;;;;;;5059536;28;20080;-71
2022/04/14 03:25:15;;;;;;;1.73;1.13;;;21.60;53.10;;;;;;5092029;28;20067;-72
2022/04/14 03:27:42;;;;;;;2.33;1.23;;;21.60;53.00;;;;;;5077398;28;20037;-72
2022/04/14 03:30:12;;;;;;;2.53;1.55;;;21.60;52.70;;;;;;5066017;28;20048;-72
2022/04/14 03:32:46;;;;;;;3.72;1.40;;;21.60;52.70;;;;;;5066106;28;20036;-72
2022/04/14 03:35:14;;;;;;;2.80;1.10;;;21.50;53.00;;;;;;5079455;28;20037;-72
2022/04/14 03:37:41;;;;;;;3.67;1.50;;;21.60;52.90;;;;;;5078576;28;20044;-72
2022/04/14 03:40:08;;;;;;;5.65;1.40;;;21.70;52.80;;;;;;5078956;28;20061;-71
2022/04/14 03:42:35;;;;;;;2.65;1.13;;;21.70;52.70;;;;;;5079111;28;20458;-72
2022/04/14 03:45:04;;;;;;;3.22;1.10;;;21.70;52.50;;;;;;5064636;28;20125;-72
2022/04/14 03:47:30;;;;;;;4.03;1.58;;;21.70;52.50;;;;;;5059108;28;20037;-72
2022/04/14 03:49:56;;;;;;;2.72;1.50;;;21.70;52.50;;;;;;5064048;28;20062;-72
2022/04/14 03:52:23;;;;;;;6.72;1.75;;;21.60;52.50;;;;;;5090171;28;20040;-72
2022/04/14 03:54:49;;;;;;;3.63;1.35;;;21.70;52.70;;;;;;5093246;28;20074;-71
2022/04/14 03:57:15;;;;;;;2.83;1.50;;;21.60;52.80;;;;;;5099454;28;20040;-71
2022/04/14 03:59:41;;;;;;;1.92;1.35;;;21.60;52.60;;;;;;5087926;28;20105;-72
2022/04/14 04:02:07;;;;;;;1.90;1.55;;;21.40;52.20;;;;;;5096367;28;20045;-72
2022/04/14 04:04:34;;;;;;;4.10;1.27;;;21.50;53.00;;;;;;5096247;28;20071;-72
2022/04/14 04:07:00;;;;;;;6.20;1.40;;;21.50;52.80;;;;;;5081612;28;20174;-72
2022/04/14 04:09:26;;;;;;;3.40;2.03;;;21.50;53.00;;;;;;5074816;28;20052;-72
2022/04/14 04:11:58;;;;;;;2.05;1.67;;;21.50;52.70;;;;;;5077275;28;20040;-72
2022/04/14 04:14:24;;;;;;;6.32;1.88;;;21.60;52.30;;;;;;5071683;28;20046;-72
2022/04/14 04:16:51;;;;;;;2.70;1.33;;;21.60;53.10;;;;;;5068985;28;20072;-72
2022/04/14 04:19:17;;;;;;;4.53;1.40;;;21.50;53.10;;;;;;5077812;28;20076;-72
2022/04/14 04:21:43;;;;;;;3.58;1.60;;;21.50;53.00;;;;;;5081181;28;20090;-72
2022/04/14 04:24:09;;;;;;;2.88;1.60;;;21.50;53.10;;;;;;5089788;28;20482;-72
2022/04/14 04:26:35;;;;;;;2.13;1.63;;;21.50;52.80;;;;;;5086457;28;20037;-72
2022/04/14 04:29:01;;;;;;;3.33;1.88;;;21.60;52.80;;;;;;5088705;28;20060;-71
2022/04/14 04:31:27;;;;;;;4.00;2.08;;;21.50;52.80;;;;;;5074149;28;20029;-72
2022/04/14 04:33:53;;;;;;;5.72;1.80;;;21.70;52.80;;;;;;5071542;28;20067;-72
2022/04/14 04:36:20;;;;;;;1.63;1.17;;;21.60;53.00;;;;;;5073567;28;20025;-71
2022/04/14 04:38:46;;;;;;;1.77;1.17;;;21.50;46.00;;;;;;5079233;28;20083;-72
2022/04/14 04:41:13;;;;;;;4.47;2.33;;;21.70;43.30;;;;;;5074692;28;20143;-70
2022/04/14 04:43:39;;;;;;;3.42;1.33;;;21.70;42.10;;;;;;5074462;28;20108;-71
2022/04/14 04:46:08;;;;;;;3.10;2.00;;;21.80;41.80;;;;;;5075646;28;20100;-71
2022/04/14 04:48:35;;;;;;;3.55;1.95;;;21.80;41.80;;;;;;5071292;28;20041;-72
2022/04/14 04:51:01;;;;;;;2.53;1.30;;;21.80;39.30;;;;;;5074171;28;20069;-71
2022/04/14 04:53:27;;;;;;;4.10;2.80;;;21.80;38.20;;;;;;5076376;28;20072;-71
2022/04/14 04:55:54;;;;;;;5.82;3.05;;;21.80;38.20;;;;;;5077200;28;20063;-70
2022/04/14 04:58:20;;;;;;;3.53;1.63;;;21.80;38.30;;;;;;5075046;28;20056;-71
2022/04/14 05:00:46;;;;;;;4.97;3.25;;;21.80;37.20;;;;;;5076124;28;20052;-70
2022/04/14 05:03:12;;;;;;;3.45;1.52;;;21.90;40.30;;;;;;5074852;28;20037;-70
2022/04/14 05:05:40;;;;;;;7.32;2.13;;;22.00;37.40;;;;;;5076833;28;20563;-69
2022/04/14 05:08:07;;;;;;;2.17;1.60;;;21.90;36.50;;;;;;5077059;28;20048;-70
2022/04/14 05:10:34;;;;;;;10.90;2.67;;;22.00;44.90;;;;;;5076949;28;20047;-70
2022/04/14 05:13:00;;;;;;;4.50;2.97;;;22.10;48.90;;;;;;5095745;28;20035;-71
2022/04/14 05:15:27;;;;;;;5.47;2.53;;;22.10;52.70;;;;;;5078235;28;20048;-71
2022/04/14 05:17:54;;;;;;;5.05;2.15;;;22.10;52.30;;;;;;5056968;28;20041;-70
2022/04/14 05:20:20;;;;;;;5.75;2.75;;;22.10;52.40;;;;;;5056860;28;20060;-72
2022/04/14 05:22:46;;;;;;;8.43;3.00;;;22.10;54.90;;;;;;5056781;28;20037;-68
2022/04/14 05:25:12;;;;;;;9.27;1.30;;;22.20;54.70;;;;;;5056082;28;20064;-68
2022/04/14 05:27:39;;;;;;;4.85;1.58;;;22.30;54.70;;;;;;5056836;28;20071;-68
2022/04/14 05:30:06;;;;;;;5.03;1.83;;;22.40;53.30;;;;;;5068765;28;20114;-68
2022/04/14 05:32:32;;;;;;;6.80;1.35;;;22.50;52.00;;;;;;5057098;28;20050;-69
2022/04/14 05:34:59;;;;;;;5.05;2.17;;;22.40;50.90;;;;;;5069290;28;20044;-68
2022/04/14 05:37:25;;;;;;;8.82;2.80;;;22.60;50.50;;;;;;5070617;28;20048;-67
2022/04/14 05:39:51;;;;;;;2.88;1.50;;;22.40;50.30;;;;;;5079209;28;20044;-68
2022/04/14 05:42:17;;;;;;;4.63;2.03;;;22.50;50.00;;;;;;5090102;28;20048;-67
2022/04/14 05:44:43;;;;;;;7.35;2.70;;;22.60;48.90;;;;;;5077283;28;20056;-74
2022/04/14 05:47:10;;;;;;;4.95;2.85;;;22.50;45.40;;;;;;5076946;28;20036;-72
2022/04/14 05:49:35;;;;;;;4.10;2.33;;;22.40;47.00;;;;;;5063984;28;20068;-72
2022/04/14 05:52:02;;;;;;;5.35;2.90;;;22.40;48.50;;;;;;5076143;28;20037;-72
2022/04/14 05:54:28;;;;;;;7.28;2.10;;;22.40;46.80;;;;;;5076200;28;20043;-73
2022/04/14 05:56:55;;;;;;;6.95;2.38;;;22.30;43.80;;;;;;5089204;28;20044;-72
2022/04/14 05:59:21;;;;;;;7.13;2.50;;;22.30;45.30;;;;;;5076831;28;20038;-71
2022/04/14 06:01:47;;;;;;;5.40;2.90;;;22.40;45.00;;;;;;5075971;28;20049;-71
2022/04/14 06:04:14;;;;;;;5.18;2.40;;;22.40;47.20;;;;;;5074060;28;20076;-72
2022/04/14 06:06:40;;;;;;;6.57;2.45;;;22.30;46.70;;;;;;5055660;28;20067;-73
2022/04/14 06:09:06;;;;;;;4.47;2.45;;;22.30;48.80;;;;;;5054791;28;20034;-72
2022/04/14 06:11:32;;;;;;;4.75;1.98;;;22.40;49.10;;;;;;5055653;28;20040;-73
2022/04/14 06:13:58;;;;;;;4.90;2.42;;;22.30;48.40;;;;;;5056264;28;20097;-73
2022/04/14 06:16:25;;;;;;;5.32;1.95;;;22.30;44.80;;;;;;5055586;28;20045;-71
2022/04/14 06:18:51;;;;;;;21.90;2.13;;;22.40;46.20;;;;;;5058193;28;20033;-72
2022/04/14 06:21:18;;;;;;;6.35;2.83;;;22.40;48.30;;;;;;5075612;28;20067;-71
2022/04/14 06:23:44;;;;;;;5.43;2.10;;;22.30;44.60;;;;;;5074532;28;20033;-72
2022/04/14 06:26:11;;;;;;;4.20;2.80;;;22.30;45.10;;;;;;5073488;28;20040;-71
2022/04/14 06:28:42;;;;;;;8.27;2.35;;;22.20;37.50;;;;;;5072912;28;20041;-72
2022/04/14 06:31:08;;;;;;;3.78;2.25;;;22.20;42.80;;;;;;5072710;28;20048;-73
2022/04/14 06:33:34;;;;;;;4.90;2.83;;;22.10;42.30;;;;;;5055514;28;20037;-71
2022/04/14 06:36:01;;;;;;;8.30;2.47;;;22.20;41.60;;;;;;5056007;28;20053;-72
2022/04/14 06:38:30;;;;;;;2.70;2.10;;;22.20;42.80;;;;;;5060633;28;20042;-71
2022/04/14 06:40:55;;;;;;;7.35;3.03;;;22.10;40.90;;;;;;5079334;28;20056;-70
2022/04/14 06:43:23;;;;;;;4.18;1.70;;;22.10;43.60;;;;;;5070595;28;20041;-72
2022/04/14 06:45:50;;;;;;;2.33;1.85;;;22.10;43.90;;;;;;5058646;28;20038;-72
2022/04/14 06:48:16;;;;;;;3.90;1.95;;;22.10;43.50;;;;;;5068624;28;20037;-72
2022/04/14 06:50:42;;;;;;;2.88;1.92;;;22.20;46.10;;;;;;5079602;28;20044;-73
2022/04/14 06:53:08;;;;;;;4.05;2.00;;;22.10;42.10;;;;;;5077311;28;20041;-71
2022/04/14 06:55:36;;;;;;;3.72;2.30;;;22.10;41.80;;;;;;5078843;28;20045;-72
2022/04/14 06:58:02;;;;;;;4.25;1.67;;;22.00;39.30;;;;;;5071243;28;20064;-72
2022/04/14 07:00:29;;;;;;;2.80;2.10;;;22.00;39.40;;;;;;5078650;28;20040;-70
2022/04/14 07:02:56;;;;;;;4.40;2.13;;;22.10;40.00;;;;;;5079384;28;20071;-71
2022/04/14 07:05:23;;;;;;;3.13;2.03;;;22.00;43.50;;;;;;5079241;28;20105;-70
2022/04/14 07:07:50;;;;;;;6.40;2.13;;;21.90;35.80;;;;;;5078153;28;20102;-71
2022/04/14 07:10:16;;;;;;;4.82;2.00;;;22.00;41.50;;;;;;5059180;28;20045;-72
2022/04/14 07:12:44;;;;;;;3.42;1.65;;;22.00;44.30;;;;;;5065170;28;20028;-71
2022/04/14 07:15:11;;;;;;;6.03;2.90;;;22.00;44.70;;;;;;5078700;28;20045;-72
2022/04/14 07:17:37;;;;;;;2.15;1.90;;;22.00;45.60;;;;;;5079018;28;20047;-72
2022/04/14 07:20:05;;;;;;;3.47;1.50;;;22.00;42.10;;;;;;5077970;28;20044;-72
2022/04/14 07:22:49;;;;;;;5.93;1.95;;;22.00;44.00;;;;;;5079065;28;20055;-74
2022/04/14 07:25:16;;;;;;;4.30;2.08;;;22.00;41.20;;;;;;5079030;28;20037;-73
2022/04/14 07:27:43;;;;;;;5.13;1.85;;;22.00;39.90;;;;;;5069749;28;20046;-72
2022/04/14 07:30:09;;;;;;;4.40;1.98;;;21.80;39.90;;;;;;5058721;28;20041;-72
2022/04/14 07:32:38;;;;;;;4.95;2.45;;;21.80;39.20;;;;;;5058684;28;20041;-72
2022/04/14 07:35:05;;;;;;;4.53;1.95;;;21.70;40.20;;;;;;5059505;28;20047;-71
2022/04/14 07:37:32;;;;;;;6.75;2.15;;;21.70;41.50;;;;;;5057554;28;20029;-73
2022/04/14 07:39:58;;;;;;;2.95;1.90;;;21.70;38.70;;;;;;5058282;28;20117;-71
2022/04/14 07:42:35;;;;;;;2.17;1.75;;;21.70;39.30;;;;;;5058801;28;20041;-72
2022/04/14 07:45:02;;;;;;;2.55;1.55;;;21.70;42.40;;;;;;5058502;28;20180;-72
2022/04/14 07:47:28;;;;;;;6.18;1.95;;;21.70;47.90;;;;;;5057406;28;20037;-72
2022/04/14 07:49:54;;;;;;;2.80;1.85;;;21.70;46.70;;;;;;5057223;28;20096;-72
2022/04/14 07:52:20;;;;;;;3.00;1.77;;;21.80;46.70;;;;;;5057540;28;20039;-71
2022/04/14 07:54:47;;;;;;;3.35;1.52;;;21.80;47.90;;;;;;5060640;28;20056;-71
2022/04/14 07:57:13;;;;;;;1.80;1.55;;;21.80;47.70;;;;;;5083204;28;20029;-74
2022/04/14 07:59:39;;;;;;;2.42;1.38;;;21.80;46.30;;;;;;5066640;28;20044;-72
2022/04/14 08:02:05;;;;;;;1.38;0.75;;;22.00;50.70;;;;;;5082798;28;20762;-70
2022/04/14 08:04:33;;;;;;;6.45;1.17;;;22.10;51.10;;;;;;5081839;28;20042;-71
2022/04/14 08:06:59;;;;;;;2.75;1.48;;;22.20;51.60;;;;;;5096024;28;20040;-70
2022/04/14 08:09:25;;;;;;;0.70;0.70;;;22.40;52.90;;;;;;5083805;28;20099;-71
2022/04/14 08:11:51;;;;;;;1.60;1.10;;;22.60;50.90;;;;;;5075996;28;20037;-71
2022/04/14 08:14:17;;;;;;;7.13;1.10;;;22.50;44.30;;;;;;5090717;28;20041;-71
2022/04/14 08:16:43;;;;;;;2.65;1.67;;;22.50;45.60;;;;;;5070300;28;20049;-71
2022/04/14 08:19:09;;;;;;;4.47;1.27;;;22.50;41.30;;;;;;5078024;28;20063;-71
2022/04/14 08:21:35;;;;;;;3.00;1.38;;;22.40;41.10;;;;;;5072478;28;20033;-72
2022/04/14 08:24:02;;;;;;;3.35;1.48;;;22.30;42.20;;;;;;5079240;28;20123;-71
2022/04/14 08:26:28;;;;;;;0.52;0.47;;;22.30;44.90;;;;;;5083454;28;20048;-70
2022/04/14 08:28:56;;;;;;;2.65;1.60;;;22.30;44.20;;;;;;5066067;28;20059;-71
2022/04/14 08:31:23;;;;;;;2.97;1.40;;;22.30;39.50;;;;;;5083425;28;20037;-70
2022/04/14 08:33:50;;;;;;;2.92;1.58;;;22.20;44.80;;;;;;5094818;28;20044;-72
2022/04/14 08:36:16;;;;;;;3.58;1.30;;;22.20;44.40;;;;;;5076142;28;20040;-70
2022/04/14 08:38:47;;;;;;;1.23;0.90;;;22.40;48.20;;;;;;5077333;28;20080;-71
2022/04/14 08:41:16;;;;;;;2.95;1.42;;;22.40;46.30;;;;;;5060367;28;20116;-69
2022/04/14 08:43:48;;;;;;;3.22;1.40;;;22.50;48.40;;;;;;5057633;28;20034;-69
2022/04/14 08:46:34;;;;;;;3.17;1.25;;;22.50;47.60;;;;;;5057180;28;20030;-70
2022/04/14 08:49:01;;;;;;;1.25;1.05;;;22.50;47.50;;;;;;5057276;28;20657;-70
2022/04/14 08:51:29;;;;;;;3.25;1.20;;;22.50;47.30;;;;;;5057225;28;20037;-69
2022/04/14 08:53:56;;;;;;;2.30;1.45;;;22.50;46.80;;;;;;5057001;28;20072;-70
2022/04/14 08:56:24;;;;;;;7.65;1.30;;;22.40;46.40;;;;;;5057676;28;20034;-70
2022/04/14 08:58:54;;;;;;;1.95;1.35;;;22.50;47.60;;;;;;5072129;28;20060;-70
2022/04/14 09:01:20;;;;;;;3.30;1.25;;;22.50;47.90;;;;;;5089812;28;20047;-70
2022/04/14 09:03:46;;;;;;;2.05;1.45;;;22.60;46.70;;;;;;5079653;28;20091;-70
2022/04/14 09:06:13;;;;;;;3.97;1.55;;;22.50;45.50;;;;;;5057709;28;20113;-70
2022/04/14 09:08:40;;;;;;;1.60;1.35;;;22.60;46.90;;;;;;5060009;28;20069;-69
2022/04/14 09:11:08;;;;;;;4.05;1.35;;;22.60;41.90;;;;;;5071731;28;20037;-69
2022/04/14 09:13:37;;;;;;;2.58;1.23;;;22.60;39.10;;;;;;5056831;28;20039;-70
2022/04/14 09:16:04;;;;;;;8.50;2.00;;;22.70;38.20;;;;;;5056776;28;20045;-69
2022/04/14 09:18:32;;;;;;;3.47;1.67;;;22.70;39.40;;;;;;5056587;28;20063;-69
2022/04/14 09:21:05;;;;;;;1.42;0.80;;;22.80;39.40;;;;;;5071393;28;20051;-69
2022/04/14 09:23:31;;;;;;;2.22;1.52;;;22.80;48.00;;;;;;5066351;28;20065;-72
2022/04/14 09:26:14;;;;;;;1.23;1.15;;;22.90;46.40;;;;;;5072967;28;20041;-68
2022/04/14 09:28:42;;;;;;;2.78;1.20;;;22.90;41.80;;;;;;5092921;28;20036;-69
2022/04/14 09:31:11;;;;;;;1.38;1.27;;;22.80;38.30;;;;;;5091536;28;20045;-69
2022/04/14 09:33:45;;;;;;;1.38;0.98;;;22.80;36.00;;;;;;5090361;28;20036;-69
2022/04/14 09:36:16;;;;;;;2.22;1.40;;;22.80;35.30;;;;;;5076252;28;20037;-70
2022/04/14 09:38:56;;;;;;;2.90;1.13;;;22.90;34.50;;;;;;5076359;28;20045;-69
2022/04/14 09:41:34;;;;;;;5.50;1.55;;;22.80;34.00;;;;;;5067358;28;20057;-69
2022/04/14 09:44:12;;;;;;;4.72;1.17;;;22.80;41.10;;;;;;5056332;28;20068;-70
2022/04/14 09:46:47;;;;;;;1.65;0.95;;;22.90;45.60;;;;;;5074851;28;20040;-69
2022/04/14 09:49:14;;;;;;;1.33;1.15;;;22.80;47.70;;;;;;5095030;28;20040;-69
2022/04/14 09:51:48;;;;;;;3.17;1.88;;;22.70;45.30;;;;;;5096288;28;20052;-70
2022/04/14 09:54:19;;;;;;;2.50;1.20;;;22.70;45.50;;;;;;5078847;28;20844;-70
2022/04/14 09:56:54;;;;;;;3.38;1.20;;;22.70;48.00;;;;;;5084481;28;20047;-71
2022/04/14 09:59:26;;;;;;;2.10;1.50;;;22.70;48.40;;;;;;5075677;28;20060;-71
2022/04/14 10:02:10;;;;;;;2.45;1.20;;;22.70;48.40;;;;;;5079735;28;20074;-70
2022/04/14 10:04:42;;;;;;;2.65;1.38;;;22.80;50.50;;;;;;5095239;28;20129;-70
2022/04/14 10:07:17;;;;;;;4.43;1.45;;;23.00;49.50;;;;;;5089716;28;20107;-72
2022/04/14 10:09:45;;;;;;;2.13;1.58;;;23.30;48.50;;;;;;5074319;28;20044;-70
2022/04/14 10:12:18;;;;;;;3.00;1.83;;;23.40;47.80;;;;;;5074623;28;20064;-71
2022/04/14 10:15:07;;;;;;;2.92;0.85;;;23.30;48.10;;;;;;5087349;28;20056;-71
2022/04/14 10:17:38;;;;;;;1.08;0.98;;;23.40;48.20;;;;;;5094331;28;20063;-71
2022/04/14 10:20:09;;;;;;;6.03;1.55;;;23.20;48.10;;;;;;5083901;28;20080;-71
2022/04/14 10:22:37;;;;;;;2.10;1.65;;;23.30;48.10;;;;;;5090923;28;20067;-73
2022/04/14 10:25:05;;;;;;;1.58;0.98;;;23.20;48.60;;;;;;5070751;28;20036;-70
2022/04/14 10:27:33;;;;;;;2.38;1.25;;;23.20;47.70;;;;;;5067570;28;20924;-69
2022/04/14 10:29:59;;;;;;;3.70;1.30;;;23.20;48.40;;;;;;5080455;28;20055;-70
2022/04/14 10:32:26;;;;;;;2.20;1.10;;;23.10;48.50;;;;;;5057040;28;20068;-69
2022/04/14 10:34:54;;;;;;;2.38;1.15;;;23.10;48.30;;;;;;5059724;28;20044;-72
2022/04/14 10:37:27;;;;;;;4.57;1.42;;;23.00;44.60;;;;;;5066102;28;20032;-70
2022/04/14 10:39:55;;;;;;;3.63;1.80;;;23.10;49.30;;;;;;5086135;28;20053;-70
2022/04/14 10:42:29;;;;;;;2.60;1.10;;;23.10;48.40;;;;;;5072952;28;20044;-70
2022/04/14 10:44:56;;;;;;;3.17;1.10;;;23.00;49.10;;;;;;5072053;28;20060;-72
2022/04/14 10:47:34;;;;;;;2.50;1.58;;;23.10;47.40;;;;;;5080633;28;20036;-71
2022/04/14 10:50:01;;;;;;;1.70;1.10;;;22.90;49.70;;;;;;5072515;28;20041;-72
2022/04/14 10:52:27;;;;;;;1.23;0.90;;;23.00;50.10;;;;;;5071797;28;20037;-72
2022/04/14 10:54:59;;;;;;;3.00;1.10;;;22.90;50.20;;;;;;5076495;28;20913;-71
2022/04/14 10:57:38;;;;;;;2.83;0.95;;;22.90;50.20;;;;;;5069711;28;20037;-69
2022/04/14 11:00:20;;;;;;;2.83;1.15;;;23.00;49.00;;;;;;5055376;28;20050;-70
2022/04/14 11:03:13;;;;;;;4.40;1.38;;;23.00;50.50;;;;;;5084637;28;20055;-70
2022/04/14 11:05:50;;;;;;;2.13;1.10;;;22.90;48.90;;;;;;5080491;28;20052;-70
2022/04/14 11:08:33;;;;;;;2.53;0.90;;;23.00;49.40;;;;;;5068076;28;20289;-71
2022/04/14 11:11:14;;;;;;;3.80;1.33;;;22.90;50.90;;;;;;5080103;28;20029;-70
2022/04/14 11:14:07;;;;;;;4.60;1.40;;;23.00;50.20;;;;;;5094842;28;20036;-70
2022/04/14 11:16:47;;;;;;;1.45;1.10;;;23.00;47.10;;;;;;5072854;28;20097;-70
2022/04/14 11:19:20;;;;;;;0.90;0.82;;;22.90;50.70;;;;;;5054818;28;20048;-70
2022/04/14 11:21:58;;;;;;;4.03;1.07;;;23.00;48.30;;;;;;5055569;28;20045;-70
2022/04/14 11:24:37;;;;;;;1.52;1.00;;;22.90;50.30;;;;;;5058415;28;20038;-70
2022/04/14 11:27:14;;;;;;;5.53;1.15;;;22.90;47.50;;;;;;5070539;28;20068;-70
2022/04/14 11:29:43;;;;;;;2.97;1.17;;;23.00;49.30;;;;;;5070515;28;20052;-70
2022/04/14 11:32:10;;;;;;;2.78;0.80;;;22.90;48.90;;;;;;5072539;28;20058;-70
2022/04/14 11:34:37;;;;;;;1.52;0.80;;;22.90;50.70;;;;;;5077797;28;20033;-70
2022/04/14 11:37:23;;;;;;;0.80;0.80;;;22.80;49.50;;;;;;5078581;28;20037;-70
2022/04/14 11:40:15;;;;;;;1.10;0.80;;;22.80;48.30;;;;;;5073089;28;20049;-70
2022/04/14 11:42:41;;;;;;;1.17;1.00;;;22.70;49.20;;;;;;5072903;28;20040;-71
2022/04/14 11:45:11;;;;;;;2.83;1.17;;;22.70;50.40;;;;;;5078496;28;20036;-70
2022/04/14 11:47:38;;;;;;;1.80;1.30;;;22.70;49.60;;;;;;5078276;28;20040;-70
2022/04/14 11:50:06;;;;;;;2.17;1.23;;;22.70;50.00;;;;;;5077980;28;20036;-70
2022/04/14 11:52:33;;;;;;;3.72;0.90;;;22.70;49.20;;;;;;5060812;28;20033;-70
2022/04/14 11:55:00;;;;;;;1.38;0.90;;;22.70;50.00;;;;;;5058755;28;20072;-71
2022/04/14 11:57:31;;;;;;;0.90;0.80;;;22.70;49.60;;;;;;5071586;28;20040;-69
2022/04/14 12:00:10;;;;;;;4.70;1.00;;;22.70;49.40;;;;;;5078533;28;20073;-70
2022/04/14 12:02:38;;;;;;;1.77;1.00;;;22.70;50.80;;;;;;5077901;28;20049;-70
2022/04/14 12:05:05;;;;;;;2.03;1.23;;;22.70;49.70;;;;;;5076361;28;20037;-70
2022/04/14 12:07:32;;;;;;;1.23;0.98;;;22.80;50.20;;;;;;5077503;28;20050;-70
2022/04/14 12:10:04;;;;;;;6.32;1.50;;;22.60;49.70;;;;;;5075231;28;20048;-70
2022/04/14 12:12:39;;;;;;;3.83;0.80;;;22.60;49.40;;;;;;5062034;28;20033;-70
2022/04/14 12:15:08;;;;;;;3.45;1.17;;;22.60;50.40;;;;;;5057572;28;20037;-69
2022/04/14 12:17:36;;;;;;;3.40;0.73;;;22.60;50.50;;;;;;5063134;28;20033;-70
2022/04/14 12:20:04;;;;;;;1.27;1.15;;;22.70;51.10;;;;;;5059794;28;20056;-70
2022/04/14 12:22:35;;;;;;;1.60;1.02;;;22.70;49.30;;;;;;5058167;28;20034;-70
2022/04/14 12:25:05;;;;;;;1.25;1.15;;;22.60;50.90;;;;;;5058436;28;20052;-70
2022/04/14 12:27:34;;;;;;;4.13;1.40;;;22.70;50.40;;;;;;5078956;28;20059;-70
2022/04/14 12:30:09;;;;;;;0.43;0.40;;;22.60;49.40;;;;;;5097269;28;20048;-69
2022/04/14 12:32:36;;;;;;;0.80;0.70;;;22.60;50.10;;;;;;5095821;28;20107;-70
2022/04/14 12:35:06;;;;;;;1.80;1.05;;;22.70;51.20;;;;;;5075770;28;20052;-68
2022/04/14 12:37:39;;;;;;;3.45;1.02;;;22.70;50.90;;;;;;5091134;28;20041;-68
2022/04/14 12:40:13;;;;;;;1.33;1.00;;;22.70;49.90;;;;;;5094606;28;20059;-68
2022/04/14 12:42:41;;;;;;;3.10;1.50;;;22.60;46.90;;;;;;5072167;28;20053;-69
2022/04/14 12:45:14;;;;;;;2.10;1.30;;;22.50;40.50;;;;;;5076679;28;20036;-68
2022/04/14 12:47:45;;;;;;;0.30;0.30;;;22.80;38.20;;;;;;5082494;28;20041;-68
2022/04/14 12:50:13;;;;;;;1.90;1.30;;;23.00;36.80;;;;;;5083982;28;20082;-70
2022/04/14 12:52:45;;;;;;;3.53;1.08;;;23.00;35.40;;;;;;5084923;28;20060;-69
2022/04/14 12:55:21;;;;;;;1.33;0.83;;;22.90;34.40;;;;;;5095697;28;20040;-69